Time;durP1;ratioP1;P1;durP2;ratioP2;P2;SDS_P1;SDS_P2;PMS_P1;PMS_P2;Temp;Humidity;BMP_temperature;BMP_pressure;BME280_temperature;BME280_humidity;BME280_pressure;Samples;Min_cycle;Max_cycle;Signal;HPM_P1;HPM_P2
2023/12/25 00:00:37;;;;;;;0.05;0.05;;;;;;;8.84;90.13;99276.75;15707695;28;20098;-48
2023/12/25 00:08:12;;;;;;;0.00;0.00;;;;;;;8.95;89.73;99297.31;15738562;28;20041;-47
2023/12/25 00:15:46;;;;;;;0.22;0.22;;;;;;;8.84;89.22;99269.53;15714626;28;20048;-50
2023/12/25 00:23:21;;;;;;;0.00;0.00;;;;;;;8.97;88.97;99287.22;15719113;28;20535;-48
2023/12/25 00:30:55;;;;;;;0.00;0.00;;;;;;;9.05;88.41;99284.19;15731981;28;20045;-48
2023/12/25 00:38:31;;;;;;;0.00;0.00;;;;;;;9.02;88.17;99300.69;15711259;28;20036;-47
2023/12/25 00:46:05;;;;;;;0.00;0.00;;;;;;;9.12;87.37;99292.06;15709086;28;20132;-47
2023/12/25 00:53:40;;;;;;;0.00;0.00;;;;;;;9.27;88.09;99281.66;15716520;28;20032;-49
2023/12/25 01:01:13;;;;;;;0.00;0.00;;;;;;;9.36;87.63;99290.94;15716421;28;20052;-48
2023/12/25 01:08:48;;;;;;;0.00;0.00;;;;;;;9.22;88.28;99307.53;15716782;28;20068;-49
2023/12/25 01:16:23;;;;;;;0.00;0.00;;;;;;;9.47;87.25;99305.38;15729387;28;20052;-51
2023/12/25 01:24:00;;;;;;;0.00;0.00;;;;;;;9.59;86.88;99319.50;15709789;28;20043;-48
2023/12/25 01:31:35;;;;;;;0.00;0.00;;;;;;;9.33;87.33;99263.84;15717752;28;20132;-49
2023/12/25 01:39:11;;;;;;;2.60;0.90;;;;;;;9.87;85.92;99296.44;15729699;28;20036;-47
2023/12/25 01:46:45;;;;;;;0.00;0.00;;;;;;;9.92;85.18;99304.56;15727095;28;20043;-50
2023/12/25 01:54:20;;;;;;;0.00;0.00;;;;;;;10.17;84.01;99312.25;15727871;28;20086;-48
2023/12/25 02:01:54;;;;;;;0.00;0.00;;;;;;;10.16;84.62;99316.78;15728299;28;20072;-51
2023/12/25 02:09:29;;;;;;;;;;;;;;;10.13;85.39;99330.69;15745040;28;20488;-48
2023/12/25 02:17:02;;;;;;;0.00;0.00;;;;;;;10.22;84.44;99317.72;15723096;28;19920;-48
2023/12/25 02:24:45;;;;;;;0.00;0.00;;;;;;;10.43;83.17;99325.06;15726731;28;20035;-48
2023/12/25 02:32:20;;;;;;;0.10;0.10;;;;;;;10.03;85.53;99313.63;15716235;28;20049;-48
2023/12/25 02:39:53;;;;;;;0.10;0.10;;;;;;;10.28;85.02;99327.50;15669757;28;20058;-48
2023/12/25 02:47:28;;;;;;;0.00;0.00;;;;;;;10.45;84.32;99330.19;15713845;28;20437;-48
2023/12/25 02:55:02;;;;;;;0.25;0.20;;;;;;;10.39;83.99;99339.19;15724118;28;20447;-47
2023/12/25 03:02:41;;;;;;;0.00;0.00;;;;;;;10.33;83.81;99350.91;15721907;28;20044;-48
2023/12/25 03:10:14;;;;;;;0.00;0.00;;;;;;;10.43;83.85;99335.78;15722372;28;20072;-47
2023/12/25 03:17:49;;;;;;;0.00;0.00;;;;;;;10.78;83.42;99331.22;15712767;28;20044;-49
2023/12/25 03:25:29;;;;;;;0.00;0.00;;;;;;;10.17;86.23;99323.00;15723838;28;20053;-48
2023/12/25 03:33:04;;;;;;;0.03;0.03;;;;;;;10.26;86.68;99326.09;15722532;28;20047;-47
2023/12/25 03:40:39;;;;;;;0.00;0.00;;;;;;;10.13;88.18;99373.59;15731378;28;20048;-49
2023/12/25 03:48:15;;;;;;;0.00;0.00;;;;;;;9.67;88.90;99372.72;15718218;28;20394;-48
2023/12/25 03:55:49;;;;;;;0.00;0.00;;;;;;;9.36;90.63;99368.59;15737743;28;20501;-46
2023/12/25 04:03:25;;;;;;;0.00;0.00;;;;;;;9.45;90.86;99350.31;15736998;28;20044;-47
2023/12/25 04:11:00;;;;;;;0.00;0.00;;;;;;;9.48;90.11;99357.88;15702967;28;20044;-47
2023/12/25 04:18:36;;;;;;;0.00;0.00;;;;;;;9.40;90.90;99358.25;15718771;28;20139;-47
2023/12/25 04:26:10;;;;;;;0.00;0.00;;;;;;;9.44;90.47;99348.69;15714918;28;20036;-48
2023/12/25 04:33:45;;;;;;;0.05;0.05;;;;;;;9.66;89.80;99360.38;15718347;28;20036;-49
2023/12/25 04:41:22;;;;;;;0.00;0.00;;;;;;;9.88;88.28;99349.00;15718949;28;20051;-46
2023/12/25 04:48:57;;;;;;;0.00;0.00;;;;;;;9.89;88.27;99342.59;15717225;28;20039;-48
2023/12/25 04:56:31;;;;;;;0.00;0.00;;;;;;;10.02;87.53;99326.19;15714762;28;20028;-47
2023/12/25 05:04:06;;;;;;;0.00;0.00;;;;;;;9.94;86.69;99331.97;15717319;28;20045;-49
2023/12/25 05:11:46;;;;;;;1.08;0.20;;;;;;;9.90;86.80;99331.63;15717470;28;20440;-49
2023/12/25 05:19:21;;;;;;;0.10;0.10;;;;;;;9.96;83.94;99345.94;15709018;28;20040;-50
2023/12/25 05:26:55;;;;;;;0.90;0.52;;;;;;;10.00;82.86;99339.03;15715764;28;20032;-49
2023/12/25 05:34:31;;;;;;;0.00;0.00;;;;;;;10.19;80.38;99353.03;15718790;28;20109;-48
2023/12/25 05:42:05;;;;;;;0.00;0.00;;;;;;;10.19;79.22;99367.25;15713312;28;20068;-47
2023/12/25 05:49:40;;;;;;;0.70;0.68;;;;;;;10.20;77.41;99357.34;15700804;28;20122;-49
2023/12/25 05:57:14;;;;;;;0.00;0.00;;;;;;;10.14;78.23;99342.22;15732248;28;20044;-50
2023/12/25 06:04:49;;;;;;;0.03;0.03;;;;;;;10.35;77.72;99364.88;15735308;28;20124;-49
2023/12/25 06:12:23;;;;;;;0.00;0.00;;;;;;;10.42;77.10;99362.84;15729404;28;20048;-52
2023/12/25 06:19:57;;;;;;;;;;;;;;;10.49;74.87;99376.91;15731867;28;20037;-48
2023/12/25 06:27:30;;;;;;;0.00;0.00;;;;;;;10.45;74.68;99371.25;15742446;28;19969;-50
2023/12/25 06:35:06;;;;;;;;;;;;;;;10.47;73.83;99398.63;15736512;28;20123;-50
2023/12/25 06:42:39;;;;;;;0.13;0.10;;;;;;;10.61;72.65;99425.97;15743237;28;19920;-46
2023/12/25 06:50:14;;;;;;;;;;;;;;;10.57;71.71;99435.53;15742041;28;20044;-46
2023/12/25 06:57:47;;;;;;;0.00;0.00;;;;;;;10.53;70.48;99420.97;15743105;28;20079;-48
2023/12/25 07:05:22;;;;;;;;;;;;;;;10.56;70.74;99455.38;15724163;28;20124;-46
2023/12/25 07:12:56;;;;;;;0.00;0.00;;;;;;;10.43;70.37;99469.91;15729411;28;20374;-47
2023/12/25 07:20:30;;;;;;;0.25;0.25;;;;;;;10.33;71.27;99466.22;15740117;28;20037;-48
2023/12/25 07:28:04;;;;;;;0.00;0.00;;;;;;;9.91;74.88;99488.69;15706977;28;20036;-50
2023/12/25 07:35:39;;;;;;;0.00;0.00;;;;;;;9.53;77.39;99515.19;15737800;28;20515;-48
2023/12/25 07:43:13;;;;;;;0.60;0.60;;;;;;;9.19;81.21;99520.31;15702669;28;20052;-48
2023/12/25 07:50:49;;;;;;;0.00;0.00;;;;;;;9.06;82.19;99540.06;15732155;28;20052;-49
2023/12/25 07:58:28;;;;;;;0.00;0.00;;;;;;;8.97;82.67;99564.72;15739903;28;20045;-50
2023/12/25 08:06:03;;;;;;;0.00;0.00;;;;;;;9.03;81.65;99577.19;15738374;28;20068;-48
2023/12/25 08:13:37;;;;;;;0.00;0.00;;;;;;;9.20;81.00;99587.00;15739293;28;20039;-48
2023/12/25 08:21:12;;;;;;;0.00;0.00;;;;;;;9.33;80.36;99604.75;15716057;28;20040;-51
2023/12/25 08:28:46;;;;;;;0.00;0.00;;;;;;;9.31;80.08;99603.31;15721966;28;20052;-51
2023/12/25 08:36:22;;;;;;;0.00;0.00;;;;;;;9.49;79.57;99613.97;15719365;28;20040;-50
2023/12/25 08:43:56;;;;;;;0.00;0.00;;;;;;;9.56;79.17;99632.59;15712985;28;20072;-49
2023/12/25 08:51:31;;;;;;;0.00;0.00;;;;;;;9.57;78.02;99643.09;15721325;28;20111;-49
2023/12/25 08:59:05;;;;;;;0.30;0.30;;;;;;;9.67;77.72;99642.53;15722269;28;20044;-49
2023/12/25 09:06:41;;;;;;;2.08;1.75;;;;;;;9.82;76.85;99664.31;15727129;28;20482;-50
2023/12/25 09:14:14;;;;;;;0.00;0.00;;;;;;;9.89;77.17;99661.53;15692784;28;20341;-49
2023/12/25 09:21:49;;;;;;;0.00;0.00;;;;;;;9.93;75.94;99676.09;15679170;28;20425;-50
2023/12/25 09:29:23;;;;;;;0.00;0.00;;;;;;;10.11;74.22;99673.31;15710412;28;20054;-54
2023/12/25 09:36:58;;;;;;;;;;;;;;;10.16;73.59;99670.72;15734304;28;20041;-51
2023/12/25 09:44:35;;;;;;;0.00;0.00;;;;;;;10.82;71.98;99670.53;15733984;28;19921;-48
2023/12/25 09:52:12;;;;;;;0.00;0.00;;;;;;;10.54;71.29;99680.19;15735492;28;20058;-50
2023/12/25 09:59:50;;;;;;;0.00;0.00;;;;;;;11.18;68.50;99670.19;15743332;28;20086;-49
2023/12/25 10:07:25;;;;;;;0.00;0.00;;;;;;;11.24;68.09;99687.22;15747606;28;20071;-50
2023/12/25 10:14:59;;;;;;;0.00;0.00;;;;;;;10.99;68.76;99690.22;15746477;28;20090;-50
2023/12/25 10:22:39;;;;;;;0.00;0.00;;;;;;;11.13;67.56;99688.06;15716082;28;20409;-49
2023/12/25 10:30:17;;;;;;;0.00;0.00;;;;;;;10.66;69.05;99705.13;15727526;28;20070;-49
2023/12/25 10:37:52;;;;;;;0.00;0.00;;;;;;;10.68;68.26;99719.16;15747315;28;20033;-50
2023/12/25 10:45:30;;;;;;;0.10;0.05;;;;;;;10.91;67.82;99738.91;15741747;28;20104;-48
2023/12/25 10:53:06;;;;;;;0.10;0.10;;;;;;;10.79;67.94;99738.16;15685202;28;20402;-50
2023/12/25 11:00:43;;;;;;;0.00;0.00;;;;;;;10.44;67.32;99745.19;15734299;28;20060;-49
2023/12/25 11:08:21;;;;;;;0.00;0.00;;;;;;;11.18;65.80;99737.34;15678668;28;20517;-52
2023/12/25 11:15:54;;;;;;;0.00;0.00;;;;;;;11.18;64.75;99748.06;15720194;28;20119;-51
2023/12/25 11:23:31;;;;;;;0.00;0.00;;;;;;;10.59;66.10;99757.31;15731437;28;20055;-50
2023/12/25 11:31:05;;;;;;;0.00;0.00;;;;;;;10.09;67.15;99747.00;15661679;28;20033;-51
2023/12/25 11:38:41;;;;;;;0.30;0.30;;;;;;;10.12;67.35;99766.13;15677745;28;20064;-48
2023/12/25 11:46:19;;;;;;;0.00;0.00;;;;;;;10.55;66.39;99783.78;15735004;28;20118;-50
2023/12/25 11:53:58;;;;;;;0.20;0.20;;;;;;;10.50;65.94;99775.63;15731044;28;20607;-53
2023/12/25 12:01:33;;;;;;;0.00;0.00;;;;;;;10.50;66.42;99783.69;15702081;28;20045;-51
2023/12/25 12:09:07;;;;;;;0.20;0.20;;;;;;;10.58;66.67;99795.91;15698933;28;20134;-50
2023/12/25 12:16:42;;;;;;;0.00;0.00;;;;;;;10.92;65.39;99805.81;15699964;28;20382;-50
2023/12/25 12:24:27;;;;;;;0.00;0.00;;;;;;;10.59;65.66;99809.13;15696276;28;20486;-48
2023/12/25 12:32:01;;;;;;;0.00;0.00;;;;;;;10.54;64.87;99818.88;15718853;28;20037;-49
2023/12/25 12:39:37;;;;;;;0.10;0.10;;;;;;;10.65;65.39;99821.59;15701804;28;20045;-51
2023/12/25 12:47:12;;;;;;;0.00;0.00;;;;;;;10.48;64.90;99826.00;15719488;28;20045;-47
2023/12/25 12:54:47;;;;;;;0.00;0.00;;;;;;;10.47;65.55;99838.59;15716179;28;20040;-51
2023/12/25 13:02:27;;;;;;;0.00;0.00;;;;;;;10.71;64.93;99835.94;15724212;28;20114;-47
2023/12/25 13:10:03;;;;;;;0.00;0.00;;;;;;;10.57;65.56;99840.72;15712255;28;20067;-49
2023/12/25 13:17:37;;;;;;;0.00;0.00;;;;;;;10.39;65.65;99871.13;15735459;28;20119;-51
2023/12/25 13:25:12;;;;;;;0.00;0.00;;;;;;;10.37;67.42;99875.91;15734372;28;20074;-54
2023/12/25 13:32:45;;;;;;;0.00;0.00;;;;;;;10.50;68.00;99880.25;15735372;28;20051;-51
2023/12/25 13:40:20;;;;;;;;;;;;;;;10.43;68.52;99887.59;15704600;28;20099;-52
2023/12/25 13:47:54;;;;;;;1.85;0.65;;;;;;;10.47;68.84;99891.44;15711028;28;19920;-49
2023/12/25 13:55:29;;;;;;;0.00;0.00;;;;;;;10.43;69.81;99891.09;15716682;28;20123;-49
2023/12/25 14:03:05;;;;;;;0.00;0.00;;;;;;;10.43;69.60;99901.81;15733422;28;20044;-50
2023/12/25 14:10:40;;;;;;;0.43;0.25;;;;;;;10.53;69.57;99879.78;15728877;28;20119;-47
2023/12/25 14:18:14;;;;;;;0.00;0.00;;;;;;;10.40;69.55;99878.16;15712456;28;20040;-48
2023/12/25 14:25:50;;;;;;;;;;;;;;;10.20;69.76;99909.75;15715566;28;20109;-47
2023/12/25 14:33:23;;;;;;;0.00;0.00;;;;;;;10.17;70.03;99921.78;15727155;28;19924;-47
2023/12/25 14:40:58;;;;;;;0.00;0.00;;;;;;;10.09;69.58;99935.50;15736072;28;20077;-50
2023/12/25 14:48:31;;;;;;;0.00;0.00;;;;;;;10.23;68.62;99949.53;15742177;28;20051;-50
2023/12/25 14:56:07;;;;;;;0.28;0.28;;;;;;;10.30;68.80;99965.56;15743951;28;20041;-50
2023/12/25 15:03:41;;;;;;;0.00;0.00;;;;;;;10.29;67.90;99975.47;15743077;28;20051;-48
2023/12/25 15:11:18;;;;;;;0.00;0.00;;;;;;;10.29;67.04;99958.56;15739605;28;20130;-50
2023/12/25 15:18:52;;;;;;;0.05;0.05;;;;;;;10.17;67.45;99974.59;15742701;28;20115;-47
2023/12/25 15:26:28;;;;;;;0.00;0.00;;;;;;;10.60;65.95;99973.63;15723383;28;20040;-50
2023/12/25 15:34:02;;;;;;;0.00;0.00;;;;;;;10.26;66.68;99989.38;15723225;28;20056;-48
2023/12/25 15:41:37;;;;;;;0.00;0.00;;;;;;;9.89;68.38;99999.28;15740552;28;20044;-47
2023/12/25 15:49:12;;;;;;;0.00;0.00;;;;;;;9.85;68.75;100022.22;15721004;28;20582;-46
2023/12/25 15:56:48;;;;;;;0.00;0.00;;;;;;;10.05;69.02;100003.22;15740246;28;20653;-51
2023/12/25 16:04:22;;;;;;;0.00;0.00;;;;;;;10.19;68.65;100002.00;15739319;28;20052;-46
2023/12/25 16:11:56;;;;;;;;;;;;;;;10.17;68.69;100031.72;15733886;28;20040;-48
2023/12/25 16:19:31;;;;;;;0.00;0.00;;;;;;;10.06;69.37;100020.94;15738365;28;19943;-47
2023/12/25 16:27:06;;;;;;;0.00;0.00;;;;;;;10.08;69.14;100030.41;15737322;28;20040;-50
2023/12/25 16:34:40;;;;;;;0.00;0.00;;;;;;;10.16;68.92;100037.31;15737012;28;20467;-48
2023/12/25 16:42:15;;;;;;;;;;;;;;;9.93;70.14;100049.53;15733809;28;20052;-51
2023/12/25 16:49:48;;;;;;;0.00;0.00;;;;;;;9.73;70.74;100072.22;15723249;28;20428;-51
2023/12/25 16:57:24;;;;;;;0.17;0.15;;;;;;;10.11;69.60;100034.47;15722489;28;20476;-46
2023/12/25 17:04:57;;;;;;;0.08;0.08;;;;;;;9.93;70.37;100064.78;15707143;28;20047;-47
2023/12/25 17:12:34;;;;;;;0.00;0.00;;;;;;;10.30;69.32;100068.31;15730777;28;20082;-47
2023/12/25 17:20:08;;;;;;;4.18;0.90;;;;;;;10.23;69.35;100097.88;15699794;28;20505;-53
2023/12/25 17:27:42;;;;;;;0.00;0.00;;;;;;;10.12;69.29;100112.03;15734621;28;20119;-46
2023/12/25 17:35:19;;;;;;;0.47;0.35;;;;;;;9.90;70.04;100108.94;15712194;28;20041;-47
2023/12/25 17:42:55;;;;;;;0.08;0.03;;;;;;;10.02;69.58;100121.63;15696619;28;20043;-50
2023/12/25 17:50:29;;;;;;;0.00;0.00;;;;;;;10.00;69.39;100103.06;15717207;28;20037;-51
2023/12/25 17:58:04;;;;;;;0.35;0.35;;;;;;;10.18;68.92;100096.91;15698033;28;20056;-50
2023/12/25 18:05:38;;;;;;;0.00;0.00;;;;;;;10.31;69.02;100115.56;15730586;28;20561;-49
2023/12/25 18:13:12;;;;;;;0.00;0.00;;;;;;;10.56;67.93;100115.47;15710778;28;20044;-51
2023/12/25 18:20:46;;;;;;;0.00;0.00;;;;;;;10.26;70.59;100123.47;15720878;28;20040;-48
2023/12/25 18:28:20;;;;;;;;;;;;;;;10.31;71.30;100120.13;15746184;28;20044;-48
2023/12/25 18:35:53;;;;;;;0.00;0.00;;;;;;;9.98;72.78;100118.56;15743537;28;19928;-50
2023/12/25 18:43:28;;;;;;;;;;;;;;;10.13;72.93;100119.03;15746975;28;20452;-54
2023/12/25 18:51:01;;;;;;;0.00;0.00;;;;;;;9.85;74.96;100121.38;15734924;28;20381;-51
2023/12/25 18:58:36;;;;;;;;;;;;;;;9.82;75.33;100127.19;15741009;28;20520;-48
2023/12/25 19:06:10;;;;;;;0.00;0.00;;;;;;;9.85;75.71;100132.91;15724762;28;20423;-51
2023/12/25 19:13:46;;;;;;;0.10;0.10;;;;;;;9.93;75.59;100131.81;15719038;28;20041;-50
2023/12/25 19:21:20;;;;;;;0.45;0.32;;;;;;;9.67;77.53;100135.56;15737498;28;20054;-54
2023/12/25 19:28:55;;;;;;;;;;;;;;;9.90;76.79;100140.31;15716536;28;20041;-49
2023/12/25 19:36:28;;;;;;;0.10;0.10;;;;;;;9.87;77.34;100140.72;15739159;28;19927;-52
2023/12/25 19:44:03;;;;;;;;;;;;;;;9.90;77.72;100135.75;15743404;28;20048;-54
2023/12/25 19:51:36;;;;;;;0.00;0.00;;;;;;;9.84;79.29;100125.94;15739744;28;19970;-52
2023/12/25 19:59:11;;;;;;;0.00;0.00;;;;;;;9.92;79.76;100130.16;15741921;28;20049;-48
2023/12/25 20:06:44;;;;;;;0.00;0.00;;;;;;;9.75;82.01;100137.16;15733402;28;20032;-52
2023/12/25 20:14:19;;;;;;;0.00;0.00;;;;;;;9.75;82.79;100140.66;15740675;28;20048;-53
2023/12/25 20:21:52;;;;;;;0.00;0.00;;;;;;;9.51;85.02;100141.44;15736601;28;20036;-53
2023/12/25 20:29:27;;;;;;;;;;;;;;;9.37;85.31;100135.34;15690775;28;20044;-52
2023/12/25 20:37:01;;;;;;;0.00;0.00;;;;;;;9.36;85.03;100123.81;15687444;28;19921;-52
2023/12/25 20:44:37;;;;;;;0.00;0.00;;;;;;;9.52;84.29;100117.13;15680550;28;20044;-51
2023/12/25 20:52:10;;;;;;;0.00;0.00;;;;;;;9.67;84.03;100119.47;15737289;28;20041;-50
2023/12/25 20:59:46;;;;;;;0.00;0.00;;;;;;;9.43;85.78;100129.97;15737840;28;20045;-51
2023/12/25 21:07:22;;;;;;;0.00;0.00;;;;;;;9.47;85.46;100121.50;15733646;28;20581;-50
2023/12/25 21:14:56;;;;;;;0.00;0.00;;;;;;;9.91;83.58;100105.22;15729665;28;20047;-49
2023/12/25 21:22:31;;;;;;;0.00;0.00;;;;;;;9.75;84.35;100096.94;15720626;28;20381;-52
2023/12/25 21:30:08;;;;;;;0.25;0.25;;;;;;;9.53;84.50;100088.47;15737101;28;20486;-49
2023/12/25 21:37:42;;;;;;;0.08;0.08;;;;;;;9.50;84.31;100075.50;15732786;28;20045;-54
2023/12/25 21:45:21;;;;;;;0.00;0.00;;;;;;;9.26;85.42;100058.41;15729874;28;20300;-50
2023/12/25 21:52:54;;;;;;;0.00;0.00;;;;;;;9.49;84.11;100042.53;15742997;28;20119;-51
2023/12/25 22:00:29;;;;;;;0.00;0.00;;;;;;;9.60;83.87;100044.50;15747277;28;20402;-50
2023/12/25 22:08:05;;;;;;;0.00;0.00;;;;;;;9.25;85.19;100038.84;15746302;28;20143;-50
2023/12/25 22:15:41;;;;;;;0.00;0.00;;;;;;;9.53;84.00;100041.06;15742797;28;20501;-51
2023/12/25 22:23:14;;;;;;;0.45;0.30;;;;;;;9.30;84.81;100036.34;15683863;28;20055;-48
2023/12/25 22:30:49;;;;;;;;;;;;;;;9.18;86.35;100033.53;15711204;28;20090;-49
2023/12/25 22:38:22;;;;;;;1.10;0.20;;;;;;;9.12;86.73;100029.06;15731098;28;19924;-47
2023/12/25 22:45:59;;;;;;;0.10;0.10;;;;;;;8.97;86.61;100020.53;15741998;28;20116;-48
2023/12/25 22:53:33;;;;;;;0.00;0.00;;;;;;;9.25;85.52;100022.78;15741818;28;20075;-48
2023/12/25 23:01:08;;;;;;;0.00;0.00;;;;;;;9.01;86.95;100024.41;15725227;28;20044;-50
2023/12/25 23:08:41;;;;;;;0.08;0.05;;;;;;;9.03;86.94;100016.16;15733065;28;20044;-47
2023/12/25 23:16:16;;;;;;;6.03;2.08;;;;;;;9.13;86.47;100006.59;15739062;28;20036;-47
2023/12/25 23:23:49;;;;;;;0.03;0.03;;;;;;;9.13;86.43;99989.72;15736320;28;20044;-48
2023/12/25 23:31:24;;;;;;;;;;;;;;;9.44;84.99;99975.44;15736507;28;20080;-49
2023/12/25 23:38:57;;;;;;;0.00;0.00;;;;;;;9.26;85.86;99962.00;15735923;28;19924;-47
2023/12/25 23:46:32;;;;;;;0.00;0.00;;;;;;;9.22;85.76;99944.75;15733386;28;20033;-52
2023/12/25 23:54:05;;;;;;;2.28;0.57;;;;;;;9.29;85.72;99942.84;15706583;22;20044;-49
